createdAt,value
2023-05-12T00:01:35.332Z,17.40
2023-05-12T00:04:02.375Z,17.40
2023-05-12T00:06:29.342Z,17.40
2023-05-12T00:08:56.222Z,17.40
2023-05-12T00:11:24.471Z,17.40
2023-05-12T00:13:51.477Z,17.40
2023-05-12T00:16:18.377Z,17.40
2023-05-12T00:18:45.308Z,17.40
2023-05-12T00:21:12.204Z,17.40
2023-05-12T00:23:39.298Z,17.40
2023-05-12T00:26:06.376Z,17.40
2023-05-12T00:28:34.721Z,17.40
2023-05-12T00:31:01.940Z,17.30
2023-05-12T00:33:28.818Z,17.30
2023-05-12T00:35:55.674Z,17.30
2023-05-12T00:38:22.529Z,17.30
2023-05-12T00:40:49.364Z,17.30
2023-05-12T00:43:16.263Z,17.30
2023-05-12T00:45:44.584Z,17.30
2023-05-12T00:48:11.611Z,17.30
2023-05-12T00:50:38.610Z,17.30
2023-05-12T00:53:05.525Z,17.30
2023-05-12T00:55:32.403Z,17.30
2023-05-12T00:57:59.520Z,17.30
2023-05-12T01:00:26.468Z,17.30
2023-05-12T01:02:55.142Z,17.30
2023-05-12T01:05:22.038Z,17.50
2023-05-12T01:07:48.913Z,17.20
2023-05-12T01:10:19.313Z,17.30
2023-05-12T01:12:46.369Z,17.20
2023-05-12T01:15:13.211Z,17.20
2023-05-12T01:17:45.314Z,17.20
2023-05-12T01:20:14.816Z,17.20
2023-05-12T01:22:42.050Z,17.20
2023-05-12T01:25:10.340Z,17.20
2023-05-12T01:27:38.919Z,17.20
2023-05-12T01:30:06.856Z,17.20
2023-05-12T01:32:33.820Z,17.20
2023-05-12T01:35:00.711Z,17.10
2023-05-12T01:37:27.548Z,17.10
2023-05-12T01:39:54.600Z,17.20
2023-05-12T01:42:21.560Z,17.10
2023-05-12T01:44:49.792Z,17.10
2023-05-12T01:47:16.667Z,17.10
2023-05-12T01:49:43.547Z,17.10
2023-05-12T01:52:10.403Z,17.10
2023-05-12T01:54:37.245Z,17.10
2023-05-12T01:57:04.763Z,17.10
2023-05-12T01:59:31.645Z,17.10
2023-05-12T02:01:59.936Z,17.10
2023-05-12T02:04:26.850Z,17.10
2023-05-12T02:06:53.716Z,17.10
2023-05-12T02:09:20.583Z,17.10
2023-05-12T02:11:47.448Z,17.10
2023-05-12T02:14:14.308Z,17.10
2023-05-12T02:16:41.276Z,17.10
2023-05-12T02:19:09.605Z,17.00
2023-05-12T02:21:36.588Z,17.00
2023-05-12T02:24:03.731Z,17.00
2023-05-12T02:26:30.600Z,17.00
2023-05-12T02:28:57.582Z,17.00
2023-05-12T02:31:24.496Z,17.00
2023-05-12T02:33:51.379Z,17.00
2023-05-12T02:36:19.624Z,17.00
2023-05-12T02:38:46.497Z,17.00
2023-05-12T02:41:13.369Z,16.90
2023-05-12T02:43:40.209Z,17.00
2023-05-12T02:46:07.202Z,17.00
2023-05-12T02:48:34.087Z,17.00
2023-05-12T02:51:00.957Z,17.00
2023-05-12T02:53:29.398Z,16.90
2023-05-12T02:55:56.264Z,17.00
2023-05-12T02:58:23.119Z,16.90
2023-05-12T03:00:56.884Z,16.90
2023-05-12T03:03:30.282Z,16.90
2023-05-12T03:05:57.164Z,16.90
2023-05-12T03:08:24.077Z,16.90
2023-05-12T03:10:52.322Z,16.90
2023-05-12T03:13:19.174Z,16.90
2023-05-12T03:15:46.050Z,16.90
2023-05-12T03:18:13.106Z,16.90
2023-05-12T03:20:40.198Z,16.90
2023-05-12T03:23:07.068Z,16.90
2023-05-12T03:25:33.925Z,16.90
2023-05-12T03:28:02.272Z,16.80
2023-05-12T03:30:29.176Z,16.80
2023-05-12T03:32:56.239Z,16.80
2023-05-12T03:35:23.634Z,16.80
2023-05-12T03:37:50.468Z,16.80
2023-05-12T03:40:17.604Z,16.80
2023-05-12T03:42:44.738Z,16.80
2023-05-12T03:45:13.124Z,16.80
2023-05-12T03:47:40.652Z,16.80
2023-05-12T03:50:08.413Z,16.80
2023-05-12T03:52:35.312Z,16.80
2023-05-12T03:55:02.215Z,16.80
2023-05-12T03:57:29.075Z,16.80
2023-05-12T03:59:55.941Z,16.80
2023-05-12T04:02:24.301Z,16.80
2023-05-12T04:04:51.193Z,16.80
2023-05-12T04:07:18.053Z,16.80
2023-05-12T04:09:44.930Z,16.80
2023-05-12T04:12:11.786Z,16.80
2023-05-12T04:14:42.943Z,16.70
2023-05-12T04:17:10.251Z,16.80
2023-05-12T04:19:38.611Z,16.80
2023-05-12T04:22:05.664Z,16.80
2023-05-12T04:24:32.566Z,16.70
2023-05-12T04:26:59.489Z,16.70
2023-05-12T04:29:26.381Z,16.70
2023-05-12T04:31:54.828Z,16.70
2023-05-12T04:34:21.809Z,16.70
2023-05-12T04:36:50.116Z,16.70
2023-05-12T04:39:16.953Z,16.70
2023-05-12T04:41:43.787Z,16.70
2023-05-12T04:44:10.647Z,16.70
2023-05-12T04:46:37.738Z,16.70
2023-05-12T04:49:04.653Z,16.70
2023-05-12T04:51:31.532Z,16.70
2023-05-12T04:53:59.770Z,16.70
2023-05-12T04:56:26.707Z,16.70
2023-05-12T04:58:53.565Z,16.70
2023-05-12T05:01:20.489Z,16.70
2023-05-12T05:03:47.460Z,16.70
2023-05-12T05:06:14.407Z,16.70
2023-05-12T05:08:41.250Z,16.60
2023-05-12T05:11:09.505Z,16.60
2023-05-12T05:13:36.394Z,16.60
2023-05-12T05:16:03.323Z,16.60
2023-05-12T05:18:30.258Z,16.70
2023-05-12T05:20:58.811Z,16.60
2023-05-12T05:23:26.287Z,16.60
2023-05-12T05:25:53.180Z,16.60
2023-05-12T05:28:21.419Z,16.60
2023-05-12T05:30:48.319Z,16.60
2023-05-12T05:33:15.288Z,16.60
2023-05-12T05:35:42.145Z,16.70
2023-05-12T05:38:08.990Z,16.60
2023-05-12T05:40:48.868Z,16.60
2023-05-12T05:43:20.905Z,16.70
2023-05-12T05:45:47.807Z,16.60
2023-05-12T05:48:14.690Z,16.60
2023-05-12T05:50:41.558Z,16.60
2023-05-12T05:53:08.398Z,16.60
2023-05-12T05:55:35.250Z,16.60
2023-05-12T05:58:02.129Z,16.60
2023-05-12T06:00:30.363Z,16.60
2023-05-12T06:02:57.308Z,16.60
2023-05-12T06:05:24.214Z,16.60
2023-05-12T06:07:51.089Z,16.60
2023-05-12T06:10:18.161Z,16.60
2023-05-12T06:12:45.356Z,16.60
2023-05-12T06:15:12.216Z,16.60
2023-05-12T06:17:40.694Z,16.60
2023-05-12T06:20:08.740Z,16.60
2023-05-12T06:22:35.645Z,16.70
2023-05-12T06:25:02.536Z,16.70
2023-05-12T06:27:29.418Z,16.70
2023-05-12T06:29:56.269Z,16.70
2023-05-12T06:32:23.168Z,16.70
2023-05-12T06:34:51.534Z,16.70
2023-05-12T06:37:18.396Z,16.70
2023-05-12T06:39:45.269Z,16.60
2023-05-12T06:42:12.131Z,16.70
2023-05-12T06:44:41.770Z,16.70
2023-05-12T06:47:09.104Z,16.70
2023-05-12T06:49:36.006Z,16.70
2023-05-12T06:52:04.772Z,16.70
2023-05-12T06:54:31.633Z,16.70
2023-05-12T06:56:58.692Z,16.70
2023-05-12T06:59:25.605Z,16.70
2023-05-12T07:01:52.690Z,16.70
2023-05-12T07:04:19.742Z,16.70
2023-05-12T07:06:46.648Z,16.70
2023-05-12T07:09:14.969Z,16.70
2023-05-12T07:11:41.851Z,16.70
2023-05-12T07:14:08.906Z,16.70
2023-05-12T07:16:35.881Z,16.70
2023-05-12T07:19:02.881Z,16.70
2023-05-12T07:21:29.861Z,16.70
2023-05-12T07:23:56.733Z,16.70
2023-05-12T07:26:24.963Z,16.70
2023-05-12T07:28:51.936Z,16.70
2023-05-12T07:31:18.857Z,16.70
2023-05-12T07:33:45.844Z,16.70
2023-05-12T07:36:12.897Z,16.70
2023-05-12T07:38:39.844Z,16.80
2023-05-12T07:41:06.743Z,16.70
2023-05-12T07:43:34.974Z,16.70
2023-05-12T07:46:01.874Z,16.70
2023-05-12T07:48:28.715Z,16.70
2023-05-12T07:50:55.582Z,16.80
2023-05-12T07:53:22.450Z,16.70
2023-05-12T07:55:49.430Z,16.80
2023-05-12T07:58:16.296Z,16.80
2023-05-12T08:00:44.649Z,16.80
2023-05-12T08:03:11.650Z,16.80
2023-05-12T08:05:38.566Z,16.80
2023-05-12T08:08:05.481Z,16.80
2023-05-12T08:10:32.464Z,16.80
2023-05-12T08:12:59.346Z,16.80
2023-05-12T08:15:26.410Z,16.80
2023-05-12T08:17:54.725Z,16.80
2023-05-12T08:20:21.640Z,16.80
2023-05-12T08:22:48.529Z,16.80
2023-05-12T08:25:15.432Z,16.80
2023-05-12T08:27:42.396Z,16.80
2023-05-12T08:30:10.174Z,16.90
2023-05-12T08:32:37.097Z,16.80
2023-05-12T08:35:06.064Z,16.80
2023-05-12T08:37:34.484Z,16.80
2023-05-12T08:40:02.061Z,16.80
2023-05-12T08:42:31.222Z,16.90
2023-05-12T08:44:59.540Z,16.90
2023-05-12T08:47:26.399Z,16.90
2023-05-12T08:49:58.595Z,16.90
2023-05-12T08:52:27.321Z,16.80
2023-05-12T08:54:56.344Z,16.90
2023-05-12T08:57:23.532Z,16.90
2023-05-12T08:59:50.433Z,16.90
2023-05-12T09:02:17.648Z,16.90
2023-05-12T09:04:44.710Z,16.90
2023-05-12T09:07:11.690Z,16.90
2023-05-12T09:09:40.973Z,16.90
2023-05-12T09:12:09.002Z,16.90
2023-05-12T09:14:35.884Z,16.90
2023-05-12T09:17:03.807Z,16.90
2023-05-12T09:19:31.019Z,16.90
2023-05-12T09:21:58.267Z,16.90
2023-05-12T09:24:34.208Z,16.90
2023-05-12T09:27:02.486Z,16.90
2023-05-12T09:29:31.814Z,16.90
2023-05-12T09:32:00.486Z,16.90
2023-05-12T09:34:27.838Z,16.90
2023-05-12T09:36:57.883Z,16.90
2023-05-12T09:39:24.915Z,16.90
2023-05-12T09:41:51.839Z,16.90
2023-05-12T09:44:20.166Z,16.90
2023-05-12T09:46:47.036Z,16.90
2023-05-12T09:49:17.857Z,16.90
2023-05-12T09:51:44.707Z,17.00
2023-05-12T09:54:11.583Z,17.00
2023-05-12T09:56:38.568Z,17.00
2023-05-12T09:59:05.578Z,17.00
2023-05-12T10:01:33.836Z,17.00
2023-05-12T10:04:00.762Z,17.00
2023-05-12T10:06:30.364Z,17.00
2023-05-12T10:09:02.555Z,17.00
2023-05-12T10:11:29.419Z,17.00
2023-05-12T10:13:56.475Z,17.00
2023-05-12T10:16:23.381Z,17.00
2023-05-12T10:18:51.615Z,17.00
2023-05-12T10:21:18.525Z,17.10
2023-05-12T10:23:45.464Z,17.10
2023-05-12T10:26:12.514Z,17.10
2023-05-12T10:28:39.380Z,17.10
2023-05-12T10:31:06.306Z,17.10
2023-05-12T10:33:33.193Z,17.10
2023-05-12T10:36:01.463Z,17.10
2023-05-12T10:38:35.543Z,17.10
2023-05-12T10:41:03.184Z,17.10
2023-05-12T10:43:30.706Z,17.10
2023-05-12T10:46:07.288Z,17.20
2023-05-12T10:48:34.169Z,17.20
2023-05-12T10:51:08.504Z,17.20
2023-05-12T10:53:48.308Z,17.20
2023-05-12T10:56:22.282Z,17.20
2023-05-12T10:59:07.686Z,17.20
2023-05-12T11:01:35.645Z,17.20
2023-05-12T11:04:13.395Z,17.20
2023-05-12T11:06:43.009Z,17.20
2023-05-12T11:09:11.078Z,17.20
2023-05-12T11:11:38.424Z,17.20
2023-05-12T11:14:05.466Z,17.20
2023-05-12T11:16:32.404Z,17.20
2023-05-12T11:19:03.463Z,17.20
2023-05-12T11:21:30.692Z,17.20
2023-05-12T11:23:59.054Z,17.20
2023-05-12T11:26:25.953Z,17.20
2023-05-12T11:28:52.818Z,17.20
2023-05-12T11:31:19.809Z,17.30
2023-05-12T11:33:46.844Z,17.20
2023-05-12T11:36:13.785Z,17.30
2023-05-12T11:38:40.676Z,17.20
2023-05-12T11:41:08.941Z,17.30
2023-05-12T11:43:35.805Z,17.30
2023-05-12T11:46:02.924Z,17.30
2023-05-12T11:48:33.474Z,17.30
2023-05-12T11:51:00.309Z,17.30
2023-05-12T11:53:27.745Z,17.30
2023-05-12T11:55:55.286Z,17.30
2023-05-12T11:58:24.329Z,17.30
2023-05-12T12:00:51.194Z,17.30
2023-05-12T12:03:18.235Z,17.30
2023-05-12T12:05:57.750Z,17.30
2023-05-12T12:08:24.588Z,17.30
2023-05-12T12:10:51.469Z,17.30
2023-05-12T12:13:20.167Z,17.30
2023-05-12T12:15:48.572Z,17.40
2023-05-12T12:18:15.509Z,17.40
2023-05-12T12:20:42.443Z,17.40
2023-05-12T12:23:12.172Z,17.40
2023-05-12T12:25:39.019Z,17.40
2023-05-12T12:28:05.896Z,17.40
2023-05-12T12:30:32.862Z,17.40
2023-05-12T12:33:01.184Z,17.40
2023-05-12T12:35:28.071Z,17.40
2023-05-12T12:37:54.963Z,17.50
2023-05-12T12:40:21.826Z,17.50
2023-05-12T12:42:48.757Z,17.50
2023-05-12T12:45:16.176Z,17.50
2023-05-12T12:47:43.818Z,17.50
2023-05-12T12:50:12.280Z,17.50
2023-05-12T12:52:39.329Z,17.60
2023-05-12T12:55:07.486Z,17.60
2023-05-12T12:57:34.372Z,17.60
2023-05-12T13:00:01.358Z,17.60
2023-05-12T13:02:28.300Z,17.60
2023-05-12T13:04:55.255Z,17.60
2023-05-12T13:07:23.489Z,17.60
2023-05-12T13:09:50.343Z,17.60
2023-05-12T13:12:17.318Z,17.60
2023-05-12T13:14:44.175Z,17.60
2023-05-12T13:17:11.108Z,17.60
2023-05-12T13:19:38.312Z,17.70
2023-05-12T13:22:05.417Z,17.70
2023-05-12T13:24:33.669Z,17.70
2023-05-12T13:27:00.600Z,17.70
2023-05-12T13:29:27.437Z,17.70
2023-05-12T13:31:54.405Z,17.70
2023-05-12T13:34:21.354Z,17.80
2023-05-12T13:36:48.272Z,17.80
2023-05-12T13:39:15.761Z,17.80
2023-05-12T13:41:44.619Z,17.80
2023-05-12T13:44:11.556Z,17.80
2023-05-12T13:46:38.492Z,17.80
2023-05-12T13:49:05.377Z,17.80
2023-05-12T13:51:32.262Z,17.80
2023-05-12T13:53:59.168Z,17.80
2023-05-12T13:56:26.157Z,17.90
2023-05-12T13:58:54.410Z,17.90
2023-05-12T14:01:21.360Z,17.90
2023-05-12T14:03:48.210Z,17.90
2023-05-12T14:06:15.077Z,17.90
2023-05-12T14:08:42.031Z,18.00
2023-05-12T14:11:08.939Z,18.00
2023-05-12T14:13:35.832Z,18.00
2023-05-12T14:16:04.647Z,18.00
2023-05-12T14:18:31.581Z,18.00
2023-05-12T14:20:58.544Z,18.00
2023-05-12T14:23:25.417Z,18.10
2023-05-12T14:25:52.455Z,18.20
2023-05-12T14:28:19.380Z,18.10
2023-05-12T14:30:46.453Z,18.10
2023-05-12T14:33:14.837Z,18.10
2023-05-12T14:35:43.250Z,18.10
2023-05-12T14:38:11.649Z,18.10
2023-05-12T14:40:40.231Z,18.20
2023-05-12T14:43:07.291Z,18.20
2023-05-12T14:45:34.244Z,18.20
2023-05-12T14:48:01.247Z,18.20
2023-05-12T14:50:29.561Z,18.20
2023-05-12T14:52:56.417Z,18.30
2023-05-12T14:55:23.630Z,18.30
2023-05-12T14:57:50.590Z,18.30
2023-05-12T15:00:18.643Z,18.30
2023-05-12T15:02:45.659Z,18.40
2023-05-12T15:05:12.949Z,18.40
2023-05-12T15:07:41.186Z,18.40
2023-05-12T15:10:08.535Z,18.50
2023-05-12T15:12:35.411Z,18.50
2023-05-12T15:15:02.368Z,18.50
2023-05-12T15:17:29.319Z,18.60
2023-05-12T15:19:56.332Z,18.50
2023-05-12T15:22:23.327Z,18.60
2023-05-12T15:24:51.629Z,18.60
2023-05-12T15:27:18.580Z,18.60
2023-05-12T15:29:45.494Z,18.60
2023-05-12T15:32:12.411Z,18.70
2023-05-12T15:34:39.267Z,18.70
2023-05-12T15:37:06.168Z,18.70
2023-05-12T15:39:33.021Z,18.70
2023-05-12T15:42:01.267Z,18.70
2023-05-12T15:44:28.146Z,18.80
2023-05-12T15:46:55.201Z,18.80
2023-05-12T15:49:22.296Z,18.80
2023-05-12T15:51:49.177Z,18.90
2023-05-12T15:54:16.086Z,18.90
2023-05-12T15:56:42.989Z,18.90
2023-05-12T15:59:11.238Z,18.90
2023-05-12T16:01:38.127Z,18.90
2023-05-12T16:04:05.168Z,19.00
2023-05-12T16:06:32.363Z,18.90
2023-05-12T16:08:59.250Z,18.90
2023-05-12T16:11:26.111Z,19.00
2023-05-12T16:13:52.976Z,19.00
2023-05-12T16:16:21.225Z,19.00
2023-05-12T16:18:48.207Z,19.00
2023-05-12T16:21:15.172Z,19.10
2023-05-12T16:23:42.028Z,19.10
2023-05-12T16:26:08.891Z,19.10
2023-05-12T16:28:35.974Z,19.10
2023-05-12T16:31:02.883Z,19.10
2023-05-12T16:33:31.221Z,19.20
2023-05-12T16:35:58.102Z,19.20
2023-05-12T16:38:25.046Z,19.20
2023-05-12T16:40:51.969Z,19.20
2023-05-12T16:43:18.899Z,19.20
2023-05-12T16:45:45.915Z,19.20
2023-05-12T16:48:12.888Z,19.20
2023-05-12T16:50:41.127Z,19.30
2023-05-12T16:53:08.012Z,19.30
2023-05-12T16:55:34.875Z,19.30
2023-05-12T16:58:01.740Z,19.30
2023-05-12T17:00:28.601Z,19.30
2023-05-12T17:02:55.508Z,19.30
2023-05-12T17:05:22.861Z,19.40
2023-05-12T17:07:51.321Z,19.40
2023-05-12T17:10:18.183Z,19.40
2023-05-12T17:12:45.116Z,19.40
2023-05-12T17:15:12.230Z,19.40
2023-05-12T17:17:39.286Z,19.40
2023-05-12T17:20:07.241Z,19.40
2023-05-12T17:22:34.131Z,19.40
2023-05-12T17:25:02.471Z,19.40
2023-05-12T17:27:29.398Z,19.40
2023-05-12T17:29:56.255Z,19.50
2023-05-12T17:32:23.201Z,19.50
2023-05-12T17:34:50.112Z,19.50
2023-05-12T17:37:17.279Z,19.40
2023-05-12T17:39:44.226Z,19.50
2023-05-12T17:42:12.484Z,19.50
2023-05-12T17:44:39.353Z,19.50
2023-05-12T17:47:06.637Z,19.50
2023-05-12T17:49:33.699Z,19.50
2023-05-12T17:52:00.533Z,19.50
2023-05-12T17:54:27.441Z,19.50
2023-05-12T17:56:54.330Z,19.50
2023-05-12T17:59:22.555Z,19.60
2023-05-12T18:01:49.399Z,19.50
2023-05-12T18:04:16.302Z,19.60
2023-05-12T18:06:43.264Z,19.50
2023-05-12T18:09:10.183Z,19.50
2023-05-12T18:11:37.172Z,19.60
2023-05-12T18:14:04.038Z,19.60
2023-05-12T18:16:32.515Z,19.60
2023-05-12T18:18:59.538Z,19.60
2023-05-12T18:21:26.448Z,19.60
2023-05-12T18:23:53.320Z,19.60
2023-05-12T18:26:20.193Z,19.50
2023-05-12T18:28:47.037Z,19.50
2023-05-12T18:31:16.210Z,19.50
2023-05-12T18:33:45.960Z,19.50
2023-05-12T18:36:12.885Z,19.50
2023-05-12T18:38:39.798Z,19.40
2023-05-12T18:41:06.637Z,19.40
2023-05-12T18:43:33.474Z,19.40
2023-05-12T18:46:00.533Z,19.40
2023-05-12T18:48:27.411Z,19.30
2023-05-12T18:50:55.701Z,19.30
2023-05-12T18:53:22.627Z,19.30
2023-05-12T18:55:49.511Z,19.30
2023-05-12T18:58:16.392Z,19.30
2023-05-12T19:00:43.260Z,19.30
2023-05-12T19:03:10.154Z,19.20
2023-05-12T19:05:37.268Z,19.20
2023-05-12T19:08:06.004Z,19.20
2023-05-12T19:10:32.898Z,19.20
2023-05-12T19:12:59.799Z,19.20
2023-05-12T19:15:26.790Z,19.20
2023-05-12T19:17:53.823Z,19.20
2023-05-12T19:20:20.860Z,19.10
2023-05-12T19:22:48.796Z,19.10
2023-05-12T19:25:17.087Z,19.10
2023-05-12T19:27:44.130Z,19.10
2023-05-12T19:30:12.435Z,19.10
2023-05-12T19:32:39.539Z,19.10
2023-05-12T19:35:07.521Z,19.00
2023-05-12T19:37:34.564Z,19.00
2023-05-12T19:40:01.537Z,19.00
2023-05-12T19:42:29.796Z,19.00
2023-05-12T19:44:56.700Z,19.00
2023-05-12T19:47:23.748Z,18.90
2023-05-12T19:49:50.666Z,19.00
2023-05-12T19:52:17.602Z,18.90
2023-05-12T19:54:44.461Z,18.90
2023-05-12T19:57:11.336Z,18.90
2023-05-12T19:59:39.580Z,18.90
2023-05-12T20:02:06.539Z,18.90
2023-05-12T20:04:33.407Z,18.90
2023-05-12T20:07:00.292Z,18.80
2023-05-12T20:09:27.176Z,18.80
2023-05-12T20:11:55.263Z,18.80
2023-05-12T20:14:22.214Z,18.80
2023-05-12T20:16:50.481Z,18.80
2023-05-12T20:19:17.916Z,18.80
2023-05-12T20:21:44.805Z,18.80
2023-05-12T20:24:11.746Z,18.80
2023-05-12T20:26:38.644Z,18.80
2023-05-12T20:29:05.508Z,18.80
2023-05-12T20:31:32.539Z,18.70
2023-05-12T20:34:00.778Z,18.70
2023-05-12T20:36:27.635Z,18.70
2023-05-12T20:38:54.484Z,18.70
2023-05-12T20:41:21.359Z,18.70
2023-05-12T20:43:48.219Z,18.70
2023-05-12T20:46:15.167Z,18.70
2023-05-12T20:48:42.072Z,18.70
2023-05-12T20:51:13.462Z,18.70
2023-05-12T20:53:40.419Z,18.70
2023-05-12T20:56:07.295Z,18.60
2023-05-12T20:58:35.059Z,18.60
2023-05-12T21:01:02.013Z,18.60
2023-05-12T21:03:28.962Z,18.60
2023-05-12T21:05:55.824Z,18.60
2023-05-12T21:08:24.174Z,18.60
2023-05-12T21:10:51.050Z,18.60
2023-05-12T21:13:17.949Z,18.60
2023-05-12T21:15:44.835Z,18.60
2023-05-12T21:18:11.817Z,18.40
2023-05-12T21:20:38.725Z,18.50
2023-05-12T21:23:05.640Z,18.50
2023-05-12T21:25:33.913Z,18.50
2023-05-12T21:28:00.757Z,18.50
2023-05-12T21:30:27.609Z,18.50
2023-05-12T21:32:54.480Z,18.50
2023-05-12T21:35:21.388Z,18.50
2023-05-12T21:37:48.345Z,18.50
2023-05-12T21:40:15.410Z,18.50
2023-05-12T21:42:43.723Z,18.50
2023-05-12T21:45:10.883Z,18.50
2023-05-12T21:47:37.822Z,18.50
2023-05-12T21:50:05.376Z,18.50
2023-05-12T21:52:32.250Z,18.40
2023-05-12T21:55:01.131Z,18.40
2023-05-12T21:57:28.011Z,18.40
2023-05-12T21:59:56.276Z,18.40
2023-05-12T22:02:23.177Z,18.40
2023-05-12T22:04:50.077Z,18.40
2023-05-12T22:07:17.033Z,18.40
2023-05-12T22:09:44.036Z,18.40
2023-05-12T22:12:10.939Z,18.40
2023-05-12T22:14:37.869Z,18.40
2023-05-12T22:17:06.233Z,18.40
2023-05-12T22:19:33.078Z,18.40
2023-05-12T22:21:59.955Z,18.30
2023-05-12T22:24:26.924Z,18.30
2023-05-12T22:26:53.763Z,18.30
2023-05-12T22:29:20.636Z,18.30
2023-05-12T22:31:47.590Z,18.30
2023-05-12T22:34:15.896Z,18.30
2023-05-12T22:36:42.948Z,18.30
2023-05-12T22:39:09.830Z,18.30
2023-05-12T22:41:36.743Z,18.30
2023-05-12T22:44:03.764Z,18.30
2023-05-12T22:46:30.694Z,18.30
2023-05-12T22:48:57.883Z,18.30
2023-05-12T22:51:26.173Z,18.30
2023-05-12T22:53:53.139Z,18.30
2023-05-12T22:56:20.069Z,18.20
2023-05-12T22:58:46.959Z,18.20
2023-05-12T23:01:13.897Z,18.20
2023-05-12T23:03:40.959Z,18.20
2023-05-12T23:06:08.117Z,18.20
2023-05-12T23:08:36.378Z,18.20
2023-05-12T23:11:03.249Z,18.20
2023-05-12T23:13:30.105Z,18.20
2023-05-12T23:15:56.972Z,18.20
2023-05-12T23:18:23.932Z,18.20
2023-05-12T23:20:50.856Z,18.20
2023-05-12T23:23:17.760Z,18.20
2023-05-12T23:25:46.542Z,18.10
2023-05-12T23:28:13.395Z,18.10
2023-05-12T23:30:40.233Z,18.10
2023-05-12T23:33:07.121Z,18.10
2023-05-12T23:35:34.001Z,18.10
2023-05-12T23:38:00.865Z,18.10
2023-05-12T23:40:27.784Z,18.10
2023-05-12T23:42:56.043Z,18.10
2023-05-12T23:45:22.903Z,18.10
2023-05-12T23:47:50.016Z,18.10
2023-05-12T23:50:16.952Z,18.10
2023-05-12T23:52:43.908Z,18.10
2023-05-12T23:55:10.770Z,18.10
2023-05-12T23:57:37.658Z,18.10
